Terminal Aerodrome Forecast
Issued by NWS

Home | Current Version | Previous Version | Text Only | Print | Product List | Glossary On
Versions: 1 2 3 4 5 6 7 8 9 10 11 12 13 14 15 16 17 18
685
FTUS45 KRIW 121546 AAB
TAFJAC
TAF AMD
KJAC 121546Z 1216/1312 VRB04KT 1/2SM FZFG BKN002
      TEMPO 1216/1218 2SM BR SCT002
     FM121800 VRB05KT 2SM BR SCT002
     FM121900 VRB05KT P6SM SCT050 BKN080
     FM130500 36006KT P6SM FEW080 BKN250
     FM130900 VRB04KT 3SM BR SCT003 OVC010
      AMD LTD TO CLD VIS AND WIND=

USA.gov is the U.S. government's official web portal to all federal, state and local government web resources and services.